sensor_id;sensor_type;location;lat;lon;timestamp;pressure;altitude;pressure_sealevel;temperature;humidity
14790;BME280;7486;51.010;10.366;2023-02-12T00:01:25;100277.56;;;2.80;88.88
14790;BME280;7486;51.010;10.366;2023-02-12T00:03:52;100270.13;;;2.74;88.20
14790;BME280;7486;51.010;10.366;2023-02-12T00:06:19;100220.88;;;2.42;87.84
14790;BME280;7486;51.010;10.366;2023-02-12T00:08:49;100277.78;;;2.77;87.83
14790;BME280;7486;51.010;10.366;2023-02-12T00:11:20;100280.28;;;2.65;88.04
14790;BME280;7486;51.010;10.366;2023-02-12T00:13:53;100165.41;;;1.99;88.14
14790;BME280;7486;51.010;10.366;2023-02-12T00:16:28;100277.56;;;2.54;88.23
14790;BME280;7486;51.010;10.366;2023-02-12T00:18:57;100231.63;;;2.38;88.64
14790;BME280;7486;51.010;10.366;2023-02-12T00:21:25;100275.38;;;2.48;88.81
14790;BME280;7486;51.010;10.366;2023-02-12T00:23:55;100275.47;;;2.59;89.36
14790;BME280;7486;51.010;10.366;2023-02-12T00:26:28;100283.63;;;2.68;89.26
14790;BME280;7486;51.010;10.366;2023-02-12T00:28:59;100284.38;;;2.70;88.56
14790;BME280;7486;51.010;10.366;2023-02-12T00:31:34;100288.84;;;2.68;88.49
14790;BME280;7486;51.010;10.366;2023-02-12T00:34:42;100292.53;;;2.65;88.49
14790;BME280;7486;51.010;10.366;2023-02-12T00:37:10;100290.97;;;2.62;88.39
14790;BME280;7486;51.010;10.366;2023-02-12T00:39:43;100217.22;;;2.32;88.61
14790;BME280;7486;51.010;10.366;2023-02-12T00:42:14;100288.22;;;2.64;89.05
14790;BME280;7486;51.010;10.366;2023-02-12T00:44:41;100236.13;;;2.48;88.97
14790;BME280;7486;51.010;10.366;2023-02-12T00:47:08;100197.44;;;2.28;88.27
14790;BME280;7486;51.010;10.366;2023-02-12T00:49:35;100230.56;;;2.40;87.47
14790;BME280;7486;51.010;10.366;2023-02-12T00:52:05;100246.59;;;2.48;88.08
14790;BME280;7486;51.010;10.366;2023-02-12T00:55:12;100304.22;;;2.85;88.19
14790;BME280;7486;51.010;10.366;2023-02-12T00:58:11;100219.41;;;2.38;87.76
14790;BME280;7486;51.010;10.366;2023-02-12T01:01:05;100286.78;;;2.73;88.24
14790;BME280;7486;51.010;10.366;2023-02-12T01:04:20;100287.09;;;2.81;88.25
14790;BME280;7486;51.010;10.366;2023-02-12T01:07:11;100244.31;;;2.56;87.79
14790;BME280;7486;51.010;10.366;2023-02-12T01:09:39;100220.66;;;2.45;87.90
14790;BME280;7486;51.010;10.366;2023-02-12T01:12:06;100217.50;;;2.40;87.52
14790;BME280;7486;51.010;10.366;2023-02-12T01:14:37;100278.91;;;2.73;88.07
14790;BME280;7486;51.010;10.366;2023-02-12T01:17:46;100273.78;;;2.58;88.67
14790;BME280;7486;51.010;10.366;2023-02-12T01:20:35;100276.22;;;2.49;88.88
14790;BME280;7486;51.010;10.366;2023-02-12T01:23:14;100278.19;;;2.45;89.54
14790;BME280;7486;51.010;10.366;2023-02-12T01:25:44;100281.31;;;2.50;89.59
14790;BME280;7486;51.010;10.366;2023-02-12T01:28:49;100291.56;;;2.53;90.18
14790;BME280;7486;51.010;10.366;2023-02-12T01:32:46;100283.13;;;2.62;89.55
14790;BME280;7486;51.010;10.366;2023-02-12T01:36:00;100276.19;;;2.61;89.24
14790;BME280;7486;51.010;10.366;2023-02-12T01:39:48;100231.63;;;2.38;89.18
14790;BME280;7486;51.010;10.366;2023-02-12T01:43:34;100263.75;;;2.65;89.49
14790;BME280;7486;51.010;10.366;2023-02-12T01:46:27;100267.91;;;2.68;89.14
14790;BME280;7486;51.010;10.366;2023-02-12T01:49:40;100235.50;;;2.32;89.91
14790;BME280;7486;51.010;10.366;2023-02-12T01:54:40;100130.72;;;1.85;89.63
14790;BME280;7486;51.010;10.366;2023-02-12T01:57:08;100267.72;;;2.58;89.50
14790;BME280;7486;51.010;10.366;2023-02-12T01:59:37;100262.72;;;2.42;89.30
14790;BME280;7486;51.010;10.366;2023-02-12T02:02:04;100285.31;;;2.69;89.50
14790;BME280;7486;51.010;10.366;2023-02-12T02:04:39;100225.47;;;2.39;89.16
14790;BME280;7486;51.010;10.366;2023-02-12T02:07:09;100206.44;;;2.24;89.12
14790;BME280;7486;51.010;10.366;2023-02-12T02:09:38;100170.56;;;2.13;89.80
14790;BME280;7486;51.010;10.366;2023-02-12T02:12:26;100277.16;;;2.73;89.06
14790;BME280;7486;51.010;10.366;2023-02-12T02:15:13;100234.22;;;2.50;89.50
14790;BME280;7486;51.010;10.366;2023-02-12T02:18:00;100265.19;;;2.82;89.54
14790;BME280;7486;51.010;10.366;2023-02-12T02:26:13;100266.00;;;2.95;88.35
14790;BME280;7486;51.010;10.366;2023-02-12T02:31:24;100267.06;;;2.92;88.68
14790;BME280;7486;51.010;10.366;2023-02-12T02:36:42;100264.22;;;3.08;88.14
14790;BME280;7486;51.010;10.366;2023-02-12T02:42:40;100212.22;;;2.91;87.55
14790;BME280;7486;51.010;10.366;2023-02-12T02:45:14;100245.66;;;3.11;87.17
14790;BME280;7486;51.010;10.366;2023-02-12T02:47:48;100249.56;;;2.93;87.04
14790;BME280;7486;51.010;10.366;2023-02-12T02:50:20;100180.66;;;2.43;88.03
14790;BME280;7486;51.010;10.366;2023-02-12T02:52:52;100087.53;;;1.92;87.99
14790;BME280;7486;51.010;10.366;2023-02-12T02:55:23;100248.28;;;2.98;88.25
14790;BME280;7486;51.010;10.366;2023-02-12T03:00:26;100251.34;;;2.92;87.61
14790;BME280;7486;51.010;10.366;2023-02-12T03:03:01;100140.09;;;2.38;87.28
14790;BME280;7486;51.010;10.366;2023-02-12T03:05:36;100252.06;;;3.07;87.10
14790;BME280;7486;51.010;10.366;2023-02-12T03:08:07;100140.13;;;2.25;87.27
14790;BME280;7486;51.010;10.366;2023-02-12T03:10:48;100184.19;;;2.68;87.46
14790;BME280;7486;51.010;10.366;2023-02-12T03:13:25;100243.75;;;3.13;87.02
14790;BME280;7486;51.010;10.366;2023-02-12T03:16:22;100235.91;;;3.13;86.76
14790;BME280;7486;51.010;10.366;2023-02-12T03:18:55;100189.63;;;2.77;86.76
14790;BME280;7486;51.010;10.366;2023-02-12T03:21:29;100242.31;;;3.09;86.51
14790;BME280;7486;51.010;10.366;2023-02-12T03:24:12;100136.94;;;2.45;86.94
14790;BME280;7486;51.010;10.366;2023-02-12T03:27:02;100164.75;;;2.59;86.38
14790;BME280;7486;51.010;10.366;2023-02-12T03:29:31;100249.44;;;3.07;87.25
14790;BME280;7486;51.010;10.366;2023-02-12T03:34:49;100242.81;;;3.14;86.43
14790;BME280;7486;51.010;10.366;2023-02-12T03:37:30;100181.16;;;2.74;86.29
14790;BME280;7486;51.010;10.366;2023-02-12T03:42:51;100249.28;;;3.21;85.85
14790;BME280;7486;51.010;10.366;2023-02-12T03:45:33;100255.69;;;3.17;86.44
14790;BME280;7486;51.010;10.366;2023-02-12T03:48:26;100189.41;;;2.80;86.08
14790;BME280;7486;51.010;10.366;2023-02-12T03:51:25;100197.53;;;2.88;85.74
14790;BME280;7486;51.010;10.366;2023-02-12T03:53:48;100142.59;;;2.52;85.62
14790;BME280;7486;51.010;10.366;2023-02-12T03:56:29;100158.78;;;2.57;85.62
14790;BME280;7486;51.010;10.366;2023-02-12T03:58:58;100185.34;;;2.76;85.67
14790;BME280;7486;51.010;10.366;2023-02-12T04:01:26;100146.66;;;2.56;85.36
14790;BME280;7486;51.010;10.366;2023-02-12T04:03:54;100260.63;;;3.22;85.17
14790;BME280;7486;51.010;10.366;2023-02-12T04:06:23;100259.66;;;3.23;85.51
14790;BME280;7486;51.010;10.366;2023-02-12T04:08:51;100224.50;;;3.01;85.14
14790;BME280;7486;51.010;10.366;2023-02-12T04:11:28;100267.28;;;3.26;85.21
14790;BME280;7486;51.010;10.366;2023-02-12T04:14:36;100269.28;;;3.22;85.14
14790;BME280;7486;51.010;10.366;2023-02-12T04:19:49;100252.16;;;3.05;85.43
14790;BME280;7486;51.010;10.366;2023-02-12T04:28:53;100276.41;;;3.20;85.52
14790;BME280;7486;51.010;10.366;2023-02-12T04:31:29;100278.09;;;3.21;85.28
14790;BME280;7486;51.010;10.366;2023-02-12T04:37:09;100211.38;;;2.78;85.59
14790;BME280;7486;51.010;10.366;2023-02-12T04:39:40;100230.22;;;2.83;85.40
14790;BME280;7486;51.010;10.366;2023-02-12T04:42:07;100221.44;;;2.84;85.60
14790;BME280;7486;51.010;10.366;2023-02-12T04:44:38;100284.81;;;3.25;85.50
14790;BME280;7486;51.010;10.366;2023-02-12T04:47:05;100138.88;;;2.18;85.10
14790;BME280;7486;51.010;10.366;2023-02-12T04:49:33;100257.66;;;2.90;84.98
14790;BME280;7486;51.010;10.366;2023-02-12T04:52:00;100285.56;;;3.14;85.25
14790;BME280;7486;51.010;10.366;2023-02-12T04:54:26;100214.34;;;2.60;85.60
14790;BME280;7486;51.010;10.366;2023-02-12T04:56:53;99991.44;;;1.34;85.20
14790;BME280;7486;51.010;10.366;2023-02-12T04:59:20;99980.56;;;1.27;85.02
14790;BME280;7486;51.010;10.366;2023-02-12T05:01:47;100241.13;;;2.77;85.55
14790;BME280;7486;51.010;10.366;2023-02-12T05:04:15;100197.41;;;2.53;85.68
14790;BME280;7486;51.010;10.366;2023-02-12T05:06:43;100216.03;;;2.61;85.63
14790;BME280;7486;51.010;10.366;2023-02-12T05:09:16;100256.81;;;2.89;85.94
14790;BME280;7486;51.010;10.366;2023-02-12T05:11:44;100297.81;;;3.14;86.27
14790;BME280;7486;51.010;10.366;2023-02-12T05:14:10;100187.59;;;2.44;85.75
14790;BME280;7486;51.010;10.366;2023-02-12T05:16:37;100311.53;;;3.18;86.02
14790;BME280;7486;51.010;10.366;2023-02-12T05:19:04;100189.25;;;2.45;86.19
14790;BME280;7486;51.010;10.366;2023-02-12T05:21:31;100243.53;;;2.80;85.57
14790;BME280;7486;51.010;10.366;2023-02-12T05:24:00;100310.25;;;3.23;85.80
14790;BME280;7486;51.010;10.366;2023-02-12T05:26:27;100060.50;;;1.68;85.04
14790;BME280;7486;51.010;10.366;2023-02-12T05:28:54;100140.13;;;2.25;85.01
14790;BME280;7486;51.010;10.366;2023-02-12T05:31:20;100248.53;;;2.83;85.35
14790;BME280;7486;51.010;10.366;2023-02-12T05:33:48;100237.94;;;2.84;85.06
14790;BME280;7486;51.010;10.366;2023-02-12T05:36:18;100187.59;;;2.44;85.18
14790;BME280;7486;51.010;10.366;2023-02-12T05:38:45;100303.75;;;3.16;85.30
14790;BME280;7486;51.010;10.366;2023-02-12T05:41:14;100268.63;;;2.95;85.29
14790;BME280;7486;51.010;10.366;2023-02-12T05:43:42;100308.06;;;3.17;85.30
14790;BME280;7486;51.010;10.366;2023-02-12T05:46:10;100281.53;;;2.98;85.23
14790;BME280;7486;51.010;10.366;2023-02-12T05:48:38;100183.84;;;2.36;84.70
14790;BME280;7486;51.010;10.366;2023-02-12T05:51:30;100255.47;;;2.71;85.92
14790;BME280;7486;51.010;10.366;2023-02-12T05:54:22;100236.53;;;2.68;85.45
14790;BME280;7486;51.010;10.366;2023-02-12T05:56:48;100272.31;;;2.80;85.84
14790;BME280;7486;51.010;10.366;2023-02-12T05:59:21;100323.16;;;3.13;85.84
14790;BME280;7486;51.010;10.366;2023-02-12T06:01:50;100320.41;;;3.15;85.56
14790;BME280;7486;51.010;10.366;2023-02-12T06:04:23;100171.28;;;2.28;85.23
14790;BME280;7486;51.010;10.366;2023-02-12T06:06:54;100143.88;;;1.96;85.29
14790;BME280;7486;51.010;10.366;2023-02-12T06:09:22;100318.66;;;3.03;85.58
14790;BME280;7486;51.010;10.366;2023-02-12T06:11:48;100268.56;;;2.58;86.06
14790;BME280;7486;51.010;10.366;2023-02-12T06:14:17;100329.22;;;3.01;85.98
14790;BME280;7486;51.010;10.366;2023-02-12T06:16:48;100329.34;;;3.00;86.46
14790;BME280;7486;51.010;10.366;2023-02-12T06:19:16;100324.22;;;3.11;86.18
14790;BME280;7486;51.010;10.366;2023-02-12T06:21:43;100325.47;;;3.18;86.26
14790;BME280;7486;51.010;10.366;2023-02-12T06:24:15;100271.38;;;2.81;85.92
14790;BME280;7486;51.010;10.366;2023-02-12T06:26:42;100279.03;;;2.84;85.71
14790;BME280;7486;51.010;10.366;2023-02-12T06:29:09;100303.59;;;2.94;85.58
14790;BME280;7486;51.010;10.366;2023-02-12T06:31:36;100195.13;;;2.36;85.88
14790;BME280;7486;51.010;10.366;2023-02-12T06:34:06;100231.22;;;2.56;85.77
14790;BME280;7486;51.010;10.366;2023-02-12T06:36:36;100353.56;;;3.29;85.92
14790;BME280;7486;51.010;10.366;2023-02-12T06:39:03;100255.69;;;2.81;85.33
14790;BME280;7486;51.010;10.366;2023-02-12T06:41:30;100251.59;;;2.77;85.32
14790;BME280;7486;51.010;10.366;2023-02-12T06:43:57;100338.25;;;3.35;85.00
14790;BME280;7486;51.010;10.366;2023-02-12T06:46:24;100293.09;;;3.06;84.99
14790;BME280;7486;51.010;10.366;2023-02-12T06:48:55;100254.44;;;2.74;85.21
14790;BME280;7486;51.010;10.366;2023-02-12T06:51:22;100238.91;;;2.71;84.71
14790;BME280;7486;51.010;10.366;2023-02-12T06:53:50;100301.72;;;2.96;85.25
14790;BME280;7486;51.010;10.366;2023-02-12T06:56:20;100318.00;;;3.12;85.62
14790;BME280;7486;51.010;10.366;2023-02-12T06:58:52;100250.75;;;2.76;85.14
14790;BME280;7486;51.010;10.366;2023-02-12T07:01:22;100338.44;;;3.20;85.48
14790;BME280;7486;51.010;10.366;2023-02-12T07:03:54;100352.78;;;3.39;85.46
14790;BME280;7486;51.010;10.366;2023-02-12T07:06:23;100313.63;;;3.12;85.21
14790;BME280;7486;51.010;10.366;2023-02-12T07:08:50;100308.72;;;3.08;85.24
14790;BME280;7486;51.010;10.366;2023-02-12T07:11:17;100359.19;;;3.35;85.64
14790;BME280;7486;51.010;10.366;2023-02-12T07:13:44;100303.59;;;2.94;85.57
14790;BME280;7486;51.010;10.366;2023-02-12T07:16:13;100318.47;;;2.93;85.95
14790;BME280;7486;51.010;10.366;2023-02-12T07:18:41;100278.28;;;2.82;86.09
14790;BME280;7486;51.010;10.366;2023-02-12T07:21:10;100289.06;;;2.90;85.84
14790;BME280;7486;51.010;10.366;2023-02-12T07:23:38;100366.63;;;3.41;86.15
14790;BME280;7486;51.010;10.366;2023-02-12T07:26:09;100358.00;;;3.39;85.90
14790;BME280;7486;51.010;10.366;2023-02-12T07:28:37;100319.50;;;3.03;85.61
14790;BME280;7486;51.010;10.366;2023-02-12T07:31:06;100323.69;;;3.06;85.79
14790;BME280;7486;51.010;10.366;2023-02-12T07:33:35;100348.41;;;3.14;85.91
14790;BME280;7486;51.010;10.366;2023-02-12T07:36:07;100319.81;;;2.99;85.95
14790;BME280;7486;51.010;10.366;2023-02-12T07:38:35;100319.09;;;2.97;85.53
14790;BME280;7486;51.010;10.366;2023-02-12T07:41:25;100376.03;;;3.44;85.44
14790;BME280;7486;51.010;10.366;2023-02-12T07:43:55;100198.16;;;2.30;85.63
14790;BME280;7486;51.010;10.366;2023-02-12T07:46:28;100384.97;;;3.41;85.97
14790;BME280;7486;51.010;10.366;2023-02-12T07:48:57;100375.22;;;3.31;86.08
14790;BME280;7486;51.010;10.366;2023-02-12T07:51:25;100379.94;;;3.38;86.37
14790;BME280;7486;51.010;10.366;2023-02-12T07:53:53;100390.41;;;3.38;86.48
14790;BME280;7486;51.010;10.366;2023-02-12T07:56:23;100400.47;;;3.44;86.84
14790;BME280;7486;51.010;10.366;2023-02-12T07:58:52;100379.81;;;3.27;86.38
14790;BME280;7486;51.010;10.366;2023-02-12T08:03:49;100358.03;;;3.14;86.69
14790;BME280;7486;51.010;10.366;2023-02-12T08:06:21;100392.28;;;3.49;86.87
14790;BME280;7486;51.010;10.366;2023-02-12T08:08:56;100348.06;;;3.19;86.29
14790;BME280;7486;51.010;10.366;2023-02-12T08:11:26;100146.84;;;1.91;86.95
14790;BME280;7486;51.010;10.366;2023-02-12T08:13:53;100336.78;;;3.06;87.09
14790;BME280;7486;51.010;10.366;2023-02-12T08:16:23;100407.78;;;3.52;87.61
14790;BME280;7486;51.010;10.366;2023-02-12T08:18:50;100313.00;;;3.09;87.60
14790;BME280;7486;51.010;10.366;2023-02-12T08:21:19;100399.03;;;3.64;87.35
14790;BME280;7486;51.010;10.366;2023-02-12T08:23:47;100409.09;;;3.70;86.83
14790;BME280;7486;51.010;10.366;2023-02-12T08:26:22;100398.72;;;3.69;87.09
14790;BME280;7486;51.010;10.366;2023-02-12T08:29:32;100400.28;;;3.71;87.06
14790;BME280;7486;51.010;10.366;2023-02-12T08:32:00;100364.28;;;3.49;86.85
14790;BME280;7486;51.010;10.366;2023-02-12T08:34:29;100402.06;;;3.71;87.41
14790;BME280;7486;51.010;10.366;2023-02-12T08:37:00;100351.75;;;3.29;86.77
14790;BME280;7486;51.010;10.366;2023-02-12T08:39:30;100407.84;;;3.76;87.42
14790;BME280;7486;51.010;10.366;2023-02-12T08:41:58;100349.97;;;3.42;86.94
14790;BME280;7486;51.010;10.366;2023-02-12T08:44:25;100414.09;;;3.86;87.42
14790;BME280;7486;51.010;10.366;2023-02-12T08:46:53;100408.31;;;3.93;86.98
14790;BME280;7486;51.010;10.366;2023-02-12T08:49:22;100377.53;;;3.72;86.99
14790;BME280;7486;51.010;10.366;2023-02-12T08:51:52;100415.59;;;4.01;86.30
14790;BME280;7486;51.010;10.366;2023-02-12T08:54:22;100341.00;;;3.57;86.67
14790;BME280;7486;51.010;10.366;2023-02-12T08:56:57;100407.91;;;3.87;86.97
14790;BME280;7486;51.010;10.366;2023-02-12T08:59:25;100432.56;;;4.08;86.77
14790;BME280;7486;51.010;10.366;2023-02-12T09:01:52;100172.91;;;2.54;86.63
14790;BME280;7486;51.010;10.366;2023-02-12T09:04:22;100415.50;;;4.02;86.60
14790;BME280;7486;51.010;10.366;2023-02-12T09:06:51;100416.03;;;4.07;86.47
14790;BME280;7486;51.010;10.366;2023-02-12T09:09:19;100402.00;;;3.96;86.86
14790;BME280;7486;51.010;10.366;2023-02-12T09:11:46;100427.38;;;4.19;87.02
14790;BME280;7486;51.010;10.366;2023-02-12T09:14:15;100426.66;;;4.17;86.12
14790;BME280;7486;51.010;10.366;2023-02-12T09:16:43;100361.50;;;3.76;86.02
14790;BME280;7486;51.010;10.366;2023-02-12T09:19:12;100437.59;;;4.11;86.81
14790;BME280;7486;51.010;10.366;2023-02-12T09:21:40;100437.38;;;4.14;87.28
14790;BME280;7486;51.010;10.366;2023-02-12T09:24:07;100358.06;;;3.63;87.12
14790;BME280;7486;51.010;10.366;2023-02-12T09:26:34;100441.34;;;4.20;86.97
14790;BME280;7486;51.010;10.366;2023-02-12T09:29:03;100445.03;;;4.17;87.10
14790;BME280;7486;51.010;10.366;2023-02-12T09:31:30;100411.31;;;4.00;87.40
14790;BME280;7486;51.010;10.366;2023-02-12T09:34:00;100443.75;;;4.23;87.49
14790;BME280;7486;51.010;10.366;2023-02-12T09:36:28;100387.56;;;3.78;88.13
14790;BME280;7486;51.010;10.366;2023-02-12T09:38:55;100347.47;;;3.64;87.75
14790;BME280;7486;51.010;10.366;2023-02-12T09:47:02;100452.44;;;4.23;88.90
14790;BME280;7486;51.010;10.366;2023-02-12T09:50:11;100452.06;;;4.16;88.87
14790;BME280;7486;51.010;10.366;2023-02-12T09:52:43;100345.91;;;3.62;89.14
14790;BME280;7486;51.010;10.366;2023-02-12T09:55:17;100458.25;;;4.39;88.97
14790;BME280;7486;51.010;10.366;2023-02-12T09:57:45;100335.38;;;3.75;88.24
14790;BME280;7486;51.010;10.366;2023-02-12T10:00:23;100441.63;;;4.51;88.26
14790;BME280;7486;51.010;10.366;2023-02-12T10:02:52;100445.47;;;4.58;87.75
14790;BME280;7486;51.010;10.366;2023-02-12T10:05:25;100394.41;;;4.28;87.59
14790;BME280;7486;51.010;10.366;2023-02-12T10:10:53;100416.25;;;4.39;86.78
14790;BME280;7486;51.010;10.366;2023-02-12T10:13:35;100469.38;;;4.78;87.04
14790;BME280;7486;51.010;10.366;2023-02-12T10:27:42;100480.84;;;4.77;86.99
14790;BME280;7486;51.010;10.366;2023-02-12T10:30:42;100456.34;;;4.76;86.54
14790;BME280;7486;51.010;10.366;2023-02-12T10:33:21;100441.16;;;4.57;86.35
14790;BME280;7486;51.010;10.366;2023-02-12T10:35:55;100260.69;;;3.56;86.28
14790;BME280;7486;51.010;10.366;2023-02-12T10:38:29;100432.34;;;4.58;86.98
14790;BME280;7486;51.010;10.366;2023-02-12T10:40:56;100112.00;;;2.65;86.53
14790;BME280;7486;51.010;10.366;2023-02-12T10:43:23;99906.91;;;1.47;85.96
14790;BME280;7486;51.010;10.366;2023-02-12T10:45:50;100120.34;;;2.70;86.24
14790;BME280;7486;51.010;10.366;2023-02-12T10:48:20;100250.28;;;3.68;85.81
14790;BME280;7486;51.010;10.366;2023-02-12T10:53:34;100282.56;;;3.68;86.40
14790;BME280;7486;51.010;10.366;2023-02-12T10:59:09;100010.09;;;2.27;85.83
14790;BME280;7486;51.010;10.366;2023-02-12T11:01:50;99871.81;;;1.51;86.11
14790;BME280;7486;51.010;10.366;2023-02-12T11:04:25;100464.97;;;5.13;85.82
14790;BME280;7486;51.010;10.366;2023-02-12T11:07:07;100268.31;;;4.07;85.87
14790;BME280;7486;51.010;10.366;2023-02-12T11:09:46;100464.97;;;5.24;85.63
14790;BME280;7486;51.010;10.366;2023-02-12T11:12:34;100107.81;;;3.10;84.89
14790;BME280;7486;51.010;10.366;2023-02-12T11:18:17;99959.63;;;2.14;83.77
14790;BME280;7486;51.010;10.366;2023-02-12T11:21:10;100456.28;;;5.35;84.70
14790;BME280;7486;51.010;10.366;2023-02-12T11:23:50;100070.88;;;2.91;84.39
14790;BME280;7486;51.010;10.366;2023-02-12T11:29:17;99936.25;;;2.36;83.90
14790;BME280;7486;51.010;10.366;2023-02-12T11:32:14;100354.81;;;4.88;83.95
14790;BME280;7486;51.010;10.366;2023-02-12T11:35:03;100450.91;;;5.36;83.71
14790;BME280;7486;51.010;10.366;2023-02-12T11:37:41;100425.94;;;5.20;83.98
14790;BME280;7486;51.010;10.366;2023-02-12T11:40:21;100421.50;;;5.31;84.16
14790;BME280;7486;51.010;10.366;2023-02-12T11:43:19;100471.00;;;5.59;83.49
14790;BME280;7486;51.010;10.366;2023-02-12T11:45:51;99808.78;;;1.69;82.85
14790;BME280;7486;51.010;10.366;2023-02-12T11:48:35;100444.34;;;5.53;82.95
14790;BME280;7486;51.010;10.366;2023-02-12T11:51:06;100264.66;;;4.32;82.97
14790;BME280;7486;51.010;10.366;2023-02-12T11:53:48;99876.53;;;2.06;82.82
14790;BME280;7486;51.010;10.366;2023-02-12T11:56:24;99864.03;;;1.99;82.35
14790;BME280;7486;51.010;10.366;2023-02-12T11:59:11;99952.28;;;2.67;82.38
14790;BME280;7486;51.010;10.366;2023-02-12T12:01:43;100114.69;;;3.58;82.85
14790;BME280;7486;51.010;10.366;2023-02-12T12:04:20;100138.81;;;3.86;82.34
14790;BME280;7486;51.010;10.366;2023-02-12T12:06:55;100134.41;;;3.86;82.42
14790;BME280;7486;51.010;10.366;2023-02-12T12:12:18;100366.47;;;5.18;82.33
14790;BME280;7486;51.010;10.366;2023-02-12T12:14:55;100378.28;;;5.24;81.95
14790;BME280;7486;51.010;10.366;2023-02-12T12:17:32;100143.22;;;3.85;82.54
14790;BME280;7486;51.010;10.366;2023-02-12T12:20:10;100125.94;;;3.83;81.99
14790;BME280;7486;51.010;10.366;2023-02-12T12:23:03;100426.91;;;5.63;82.19
14790;BME280;7486;51.010;10.366;2023-02-12T12:25:50;100432.53;;;5.47;82.58
14790;BME280;7486;51.010;10.366;2023-02-12T12:28:40;100427.28;;;5.47;82.57
14790;BME280;7486;51.010;10.366;2023-02-12T12:31:29;100431.34;;;5.40;82.91
14790;BME280;7486;51.010;10.366;2023-02-12T12:34:06;100418.66;;;5.45;82.70
14790;BME280;7486;51.010;10.366;2023-02-12T12:44:56;100414.81;;;5.38;81.66
14790;BME280;7486;51.010;10.366;2023-02-12T12:53:17;100414.00;;;5.49;82.57
14790;BME280;7486;51.010;10.366;2023-02-12T13:06:29;100332.41;;;4.95;82.38
14790;BME280;7486;51.010;10.366;2023-02-12T13:09:14;100412.44;;;5.46;82.36
14790;BME280;7486;51.010;10.366;2023-02-12T13:12:02;100299.44;;;4.80;82.47
14790;BME280;7486;51.010;10.366;2023-02-12T13:17:24;100280.34;;;4.78;82.37
14790;BME280;7486;51.010;10.366;2023-02-12T13:20:08;100399.53;;;5.65;82.43
14790;BME280;7486;51.010;10.366;2023-02-12T13:23:22;100372.22;;;5.24;82.07
14790;BME280;7486;51.010;10.366;2023-02-12T13:28:54;100335.28;;;5.14;81.67
14790;BME280;7486;51.010;10.366;2023-02-12T13:31:23;100260.28;;;4.77;81.78
14790;BME280;7486;51.010;10.366;2023-02-12T13:34:13;100411.50;;;5.47;81.85
14790;BME280;7486;51.010;10.366;2023-02-12T13:36:41;100347.81;;;4.99;82.23
14790;BME280;7486;51.010;10.366;2023-02-12T13:39:36;100344.91;;;4.80;82.85
14790;BME280;7486;51.010;10.366;2023-02-12T13:44:58;100409.44;;;5.62;81.88
14790;BME280;7486;51.010;10.366;2023-02-12T13:53:41;100406.44;;;5.78;81.08
14790;BME280;7486;51.010;10.366;2023-02-12T13:58:54;100405.94;;;5.84;80.65
14790;BME280;7486;51.010;10.366;2023-02-12T14:01:36;100398.31;;;5.81;80.52
14790;BME280;7486;51.010;10.366;2023-02-12T14:06:57;100303.03;;;5.12;80.63
14790;BME280;7486;51.010;10.366;2023-02-12T14:09:36;100379.22;;;5.67;80.33
14790;BME280;7486;51.010;10.366;2023-02-12T14:12:06;100338.75;;;5.37;80.39
14790;BME280;7486;51.010;10.366;2023-02-12T14:14:40;100282.38;;;5.18;80.58
14790;BME280;7486;51.010;10.366;2023-02-12T14:27:59;100309.22;;;5.11;80.43
14790;BME280;7486;51.010;10.366;2023-02-12T14:30:39;100309.00;;;5.25;80.11
14790;BME280;7486;51.010;10.366;2023-02-12T14:35:43;100395.84;;;5.68;80.61
14790;BME280;7486;51.010;10.366;2023-02-12T14:40:41;100350.09;;;5.37;80.60
14790;BME280;7486;51.010;10.366;2023-02-12T14:49:02;100357.25;;;5.46;80.29
14790;BME280;7486;51.010;10.366;2023-02-12T14:51:49;100394.97;;;5.79;80.40
14790;BME280;7486;51.010;10.366;2023-02-12T14:54:31;100344.81;;;5.48;79.98
14790;BME280;7486;51.010;10.366;2023-02-12T14:57:06;100366.09;;;5.56;79.88
14790;BME280;7486;51.010;10.366;2023-02-12T14:59:38;100351.41;;;5.43;79.81
14790;BME280;7486;51.010;10.366;2023-02-12T15:02:12;100338.66;;;5.16;79.65
14790;BME280;7486;51.010;10.366;2023-02-12T15:04:43;100260.16;;;4.56;80.71
14790;BME280;7486;51.010;10.366;2023-02-12T15:07:13;100324.50;;;4.95;81.18
14790;BME280;7486;51.010;10.366;2023-02-12T15:09:51;100309.13;;;4.79;80.99
14790;BME280;7486;51.010;10.366;2023-02-12T15:12:44;100368.34;;;5.28;80.59
14790;BME280;7486;51.010;10.366;2023-02-12T15:15:21;100155.75;;;3.93;80.01
14790;BME280;7486;51.010;10.366;2023-02-12T15:18:02;100341.84;;;4.86;81.57
14790;BME280;7486;51.010;10.366;2023-02-12T15:20:57;100399.53;;;5.32;81.33
14790;BME280;7486;51.010;10.366;2023-02-12T15:24:08;100401.44;;;5.41;80.99
14790;BME280;7486;51.010;10.366;2023-02-12T15:26:43;100390.72;;;5.22;80.99
14790;BME280;7486;51.010;10.366;2023-02-12T15:29:30;100322.00;;;4.93;80.91
14790;BME280;7486;51.010;10.366;2023-02-12T15:32:03;100407.91;;;5.37;81.14
14790;BME280;7486;51.010;10.366;2023-02-12T15:34:35;100370.84;;;5.07;80.92
14790;BME280;7486;51.010;10.366;2023-02-12T15:37:03;100361.41;;;5.04;81.30
14790;BME280;7486;51.010;10.366;2023-02-12T15:39:40;100393.59;;;5.30;81.48
14790;BME280;7486;51.010;10.366;2023-02-12T15:42:34;100273.88;;;4.59;81.54
14790;BME280;7486;51.010;10.366;2023-02-12T15:47:33;100295.88;;;4.92;80.33
14790;BME280;7486;51.010;10.366;2023-02-12T15:50:00;100272.47;;;4.89;79.92
14790;BME280;7486;51.010;10.366;2023-02-12T15:52:32;100299.69;;;5.10;79.30
14790;BME280;7486;51.010;10.366;2023-02-12T15:55:01;100413.16;;;5.71;79.29
14790;BME280;7486;51.010;10.366;2023-02-12T15:57:29;100110.09;;;3.95;78.80
14790;BME280;7486;51.010;10.366;2023-02-12T16:00:04;100175.59;;;4.30;78.87
14790;BME280;7486;51.010;10.366;2023-02-12T16:02:38;100348.19;;;5.39;78.75
14790;BME280;7486;51.010;10.366;2023-02-12T16:05:05;100368.34;;;5.50;78.88
14790;BME280;7486;51.010;10.366;2023-02-12T16:07:34;100343.41;;;5.44;78.94